Avia Traffic Kyrgyzstan B733 at Osh on Sep 30th 2018, blew both left main tyres on landing

Last Update: October 1, 2018 / 21:57:55 GMT/Zulu time

Bookmark this article
Incident Facts

Date of incident
Sep 30, 2018

Classification
Incident

Flight number
YK-748

Destination
Osh, Kyrgyzstan

Aircraft Registration
EX-37010

Aircraft Type
Boeing 737-300

ICAO Type Designator
B733

An Avia Traffic Company Kyrgyzstan Boeing 737-300, registration EX-37010 performing flight YK-748 from Moscow Domodedovo (Russia) to Osh (Kyrgyzstan), landed on Osh's runway 12 at 05:52L (23:52Z Sep 29th) but burst both left main tyres and became disabled on the runway.

The occurrence aircraft is still on the ground in Osh about 46 hours after landing.

Metars:
UCFO 300100Z 17003MPS CAVOK 13/06 Q1019 R12/CLRD70 NOSIG=
UCFO 300030Z 18004MPS CAVOK 14/06 Q1019 R12/CLRD70 NOSIG=
UCFO 300000Z 18004MPS CAVOK 14/06 Q1018 R12/CLRD70 NOSIG=
UCFO 292330Z 17003MPS CAVOK 13/06 Q1018 R12/CLRD70 NOSIG=
UCFO 292300Z 20003MPS CAVOK 14/06 Q1018 R12/CLRD70 NOSIG=
UCFO 292230Z 18003MPS CAVOK 15/06 Q1018 R12/CLRD70 NOSIG=
UCFO 292200Z 17004MPS CAVOK 16/06 Q1018 R12/CLRD70 NOSIG=
UCFO 292130Z 18004MPS CAVOK 15/06 Q1018 R12/CLRD70 NOSIG=
UCFO 292100Z 18004MPS CAVOK 15/06 Q1019 R12/CLRD70 NOSIG=
Incident Facts

Date of incident
Sep 30, 2018

Classification
Incident

Flight number
YK-748

Destination
Osh, Kyrgyzstan

Aircraft Registration
EX-37010

Aircraft Type
Boeing 737-300

ICAO Type Designator
B733

This article is published under license from Avherald.com. © of text by Avherald.com.
Article source

You can read 4 more free articles without a subscription.

Subscribe now and continue reading without any limits!

Are you a subscriber?
Login
Subscribe

Read unlimited articles and receive our daily update briefing. Gain better insights into what is happening in commercial aviation safety.

Free newsletter

Want to know more and stay ahead? Get our free weekly newsletter and join 4941 existing subscribers.

By subscribing, you accept our terms and conditions and confirm that you've read our privacy policy.

Send tip

Support AeroInside by sending a small tip amount.

Related articles

Newest articles

Subscribe today

Are you researching aviation incidents? Get access to AeroInside Insights, unlimited read access and receive the daily newsletter.

Pick your plan and subscribe

Partner

Blockaviation logo

A new way to document and demonstrate airworthiness compliance and aircraft value. Find out more.

Virtual Speech logo

ELITE Simulation Solutions is a leading global provider of Flight Simulation Training Devices, IFR training software as well as flight controls and related services. Find out more.

Get updates

Never miss an article from AeroInside. Subscribe to our free weekly newsletter and join 4941 existing subscribers.

By subscribing, you accept our terms and conditions and that you've read our privacy policy.

AeroInside Blog
Popular aircraft
Airbus A320
Boeing 737-800
Boeing 737-800 MAX
Popular airlines
American Airlines
United
Delta
Air Canada
Lufthansa
British Airways